TAF Text Data
IDs:
Format:
Raw Decoded Include METAR

Data at: 0658 UTC 23 Oct 2018

KTEX 230635Z AUTO 00000KT 7SM RA SCT023 BKN033 OVC065 04/03 A3035 RMK AO2 P0001

KTEX 230657Z 2307/2406 00000KT P6SM -RA SCT023 BKN035 OVC070
  FM230800 14007KT P6SM VCSH SCT030 BKN045
  FM231800 15008KT 6SM -SHRA VCTS BKN025CB OVC070
  FM232300 VRB04KT P6SM VCSH BKN025 OVC040
  FM240200 VRB04KT P6SM BKN020 OVC030